Terminal Aerodrome Forecast
Issued by NWS Wilmington, NC

Home | Current Version | Previous Version | Text Only | Print | Product List | Glossary On
Versions: 1 2 3 4 5 6 7 8 9 10 11 12 13 14 15 16 17 18 19 20 21
000
FTUS42 KILM 311700
TAFMYR
TAF
KMYR 311725Z 3118/0118 02012KT P6SM SKC
     FM312200 01005KT P6SM SCT040
     FM010600 VRB04KT P6SM VCSH SCT035 BKN080
     FM011400 28010G18KT P6SM VCSH BKN040=

USA.gov is the U.S. government's official web portal to all federal, state and local government web resources and services.